Cass Lake, Minnesota
Current Conditions -  °F | °C
As of 6:55 PM on Tuesday 21 Oct 2014 (Local Time) from KY49 Reporting Station
Clear Clear  
Wind Chill: 50°   Ceiling: Unl
Heat Index: 50°   Visibility: 10mi
Dew Point: 37°   Wind: 12mph
Humidity: 62%   Direction: 140°SE
Pressure: 30.05"   Gusts: 17mph
Location:  47.38°N, 94.6°W
Report Text: KY49 212355Z AUTO 14010G15KT 10SM CLR 10/03 A3005 RMK AO2 T01010030 10127 20101
Loading
Personal Weather Stations






























Interactive Weather Map
Tropical Storm Tracking
New forecast layout! Learn more

10-Day Weather Forecast

Advertisements
Track Severe Weather on mobile